Laurel — ZCOV6 — position and weather

sailwx.info

Track history (hours):
 
Tides and Currents Weather Stations Pressure Air Temp Water Temp Dewpoint Dewpoint Depression Visibility Wind Speed Wind Dir Waves Ship Positions

Laurel

Last reported at 2016-Dec-30 07:15 UTC. Time now 2017-Jan-24 09:15 UTC.
Position N 15°55' W 061°43'.
Warning: this ship's position is 25 days out of date.

Length 73 m; draft 3.7 m.

Type: Pleasure craft. MMSI: 319914000.

Date/timePositionNaut miles runAvg speedWind from/ knotsBaromVisibWave heightAir tempDewpointWater temp
2016-Dec-30 07:15N 15°55' W 061°43'1214.7
2016-Dec-30 06:28N 16°06' W 061°48'1314.5
2016-Dec-30 05:33N 16°19' W 061°51'1414.2
2016-Dec-30 04:33N 16°33' W 061°52'1414.2
2016-Dec-30 03:33N 16°47' W 061°54'1414.4
2016-Dec-30 02:33N 17°01' W 061°56'4 3.4
2016-Dec-30 01:33N 17°04' W 061°54'0 0.0
2016-Dec-30 00:32N 17°04' W 061°54'0 0.0
2016-Dec-29 23:32N 17°04' W 061°54'0 0.0
2016-Dec-29 22:33N 17°04' W 061°54'0 0.0
2016-Dec-29 21:33N 17°04' W 061°54'0 0.0
2016-Dec-29 20:33N 17°04' W 061°54'0 0.0
2016-Dec-29 19:29N 17°04' W 061°54'0 0.0
2016-Dec-29 18:32N 17°04' W 061°54'0 0.0
2016-Dec-29 17:32N 17°04' W 061°54'1 0.8
2016-Dec-29 16:33N 17°04' W 061°55'7 7.3
2016-Dec-29 15:33N 16°60' W 061°49'3 3.1
2016-Dec-29 14:32N 17°00' W 061°46'0 0.0
2016-Dec-29 13:32N 17°00' W 061°46'0 0.0
2016-Dec-29 12:32N 17°00' W 061°46'0 0.0
2016-Dec-29 11:32N 17°00' W 061°46'0 0.0
2016-Dec-29 10:32N 17°00' W 061°46'0 0.0
2016-Dec-29 09:32N 17°00' W 061°46'0 0.0
2016-Dec-29 08:29N 17°00' W 061°46'0 0.0
2016-Dec-29 07:32N 17°00' W 061°46'0 0.0
2016-Dec-29 06:32N 17°00' W 061°46'0 0.0
2016-Dec-29 05:32N 17°00' W 061°46'0 0.0
2016-Dec-29 04:32N 17°00' W 061°46'0 0.0
2016-Dec-29 03:32N 17°00' W 061°46'0 0.0
2016-Dec-29 02:32N 17°00' W 061°46'0 0.0
2016-Dec-29 01:32N 17°00' W 061°46'0 0.0
2016-Dec-29 00:32N 17°00' W 061°46'0 0.0
2016-Dec-28 23:32N 17°00' W 061°46'0 0.0
2016-Dec-28 22:32N 17°00' W 061°46'0 0.0
2016-Dec-28 21:29N 17°00' W 061°46'0 0.0
2016-Dec-28 20:32N 17°00' W 061°46'0 0.0
2016-Dec-28 19:32N 17°00' W 061°46'0 0.0
2016-Dec-28 18:32N 17°00' W 061°46'0 0.0
2016-Dec-28 17:32N 17°00' W 061°46'0 0.0
2016-Dec-28 16:32N 17°00' W 061°46'1 1.2
2016-Dec-28 15:33N 17°01' W 061°47'0 0.0
2016-Dec-28 14:33N 17°01' W 061°47'0 0.0
2016-Dec-28 13:33N 17°01' W 061°47'0 0.0
2016-Dec-28 12:33N 17°01' W 061°47'0 0.0
2016-Dec-28 11:33N 17°01' W 061°47'0 0.0
2016-Dec-28 10:33N 17°01' W 061°47'0 0.0
2016-Dec-28 09:33N 17°01' W 061°47'5 4.8
2016-Dec-28 08:33N 16°60' W 061°52'1313.0
2016-Dec-28 07:33N 17°01' W 062°05'  
2016-Dec-25 03:31N 18°00' W 063°04'4 0.1
2016-Dec-23 15:31N 18°05' W 063°06'0 0.0
2016-Dec-23 14:31N 18°05' W 063°06'0 0.0
2016-Dec-23 13:04N 18°05' W 063°06'0 0.0
2016-Dec-23 12:31N 18°05' W 063°06'0 0.0
2016-Dec-23 11:31N 18°05' W 063°06'0 0.1
2016-Dec-23 10:18N 18°05' W 063°06'1012.5
2016-Dec-23 09:30N 18°08' W 063°15'72 4.2
2016-Dec-22 16:19N 18°26' W 064°29'4 1.0
2016-Dec-22 12:32N 18°23' W 064°32'1111.0
2016-Dec-22 11:33N 18°23' W 064°43'0 0.0
2016-Dec-22 10:16N 18°23' W 064°43'0 0.0
2016-Dec-22 09:28N 18°23' W 064°43'0 0.0
2016-Dec-22 08:28N 18°23' W 064°43'0 0.0
2016-Dec-22 07:22N 18°23' W 064°43'0 0.0
2016-Dec-22 06:28N 18°23' W 064°43'0 0.0
2016-Dec-22 05:28N 18°23' W 064°43'0 0.0
2016-Dec-22 04:28N 18°23' W 064°43'0 0.0
2016-Dec-22 03:28N 18°23' W 064°43'0 0.0
2016-Dec-22 02:28N 18°23' W 064°43'0 0.0
2016-Dec-22 01:28N 18°23' W 064°43'0 0.0
2016-Dec-22 00:28N 18°23' W 064°43'1 1.0
2016-Dec-21 23:33N 18°24' W 064°43'1512.2
2016-Dec-21 22:21N 18°26' W 064°27'2 0.3
2016-Dec-21 16:29N 18°26' W 064°29'1314.2
2016-Dec-21 15:33N 18°23' W 064°43'0 0.4
2016-Dec-21 14:31N 18°23' W 064°43'0 0.0
2016-Dec-21 13:28N 18°23' W 064°43'0 0.0
2016-Dec-21 12:28N 18°23' W 064°43'0 0.0
2016-Dec-21 11:16N 18°23' W 064°43'0 0.0
2016-Dec-21 10:28N 18°23' W 064°43'0 0.0
2016-Dec-21 09:28N 18°23' W 064°43'0 0.0
2016-Dec-21 08:22N 18°23' W 064°43'0 0.0
2016-Dec-21 07:28N 18°23' W 064°43'0 0.0
2016-Dec-21 06:28N 18°23' W 064°43'0 0.0
2016-Dec-21 05:28N 18°23' W 064°43'0 0.0
2016-Dec-21 04:28N 18°23' W 064°43'0 0.0
2016-Dec-21 03:28N 18°23' W 064°43'0 0.0
2016-Dec-21 02:28N 18°23' W 064°43'0 0.0
2016-Dec-21 01:28N 18°23' W 064°43'0 0.0
2016-Dec-21 00:28N 18°23' W 064°43'0 0.0
2016-Dec-20 23:28N 18°23' W 064°43'0 0.0
2016-Dec-20 22:28N 18°23' W 064°43'0 0.0
2016-Dec-20 21:22N 18°23' W 064°43'0 0.0
2016-Dec-20 20:28N 18°23' W 064°43'5 5.7
2016-Dec-20 19:31N 18°20' W 064°38'2 0.3
2016-Dec-20 13:32N 18°21' W 064°37'3 3.1
2016-Dec-20 12:30N 18°25' W 064°37'9 9.9
2016-Dec-20 11:33N 18°22' W 064°46'  
Track history (hours):
 
Tides and Currents Weather Stations Pressure Air Temp Water Temp Dewpoint Dewpoint Depression Visibility Wind Speed Wind Dir Waves Ship Positions

Laurel

Last reported at 2016-Dec-30 07:15 UTC. Time now 2017-Jan-24 09:15 UTC.
Position N 15°55' W 061°43'.
Warning: this ship's position is 25 days out of date.

Length 73 m; draft 3.7 m.

Type: Pleasure craft. MMSI: 319914000.

Date/timePositionNaut miles runAvg speedWind from/ knotsBaromVisibWave heightAir tempDewpointWater temp
2016-Dec-30 07:15N 15°55' W 061°43'1214.7
2016-Dec-30 06:28N 16°06' W 061°48'1314.5
2016-Dec-30 05:33N 16°19' W 061°51'1414.2
2016-Dec-30 04:33N 16°33' W 061°52'1414.2
2016-Dec-30 03:33N 16°47' W 061°54'1414.4
2016-Dec-30 02:33N 17°01' W 061°56'4 3.4
2016-Dec-30 01:33N 17°04' W 061°54'0 0.0
2016-Dec-30 00:32N 17°04' W 061°54'0 0.0
2016-Dec-29 23:32N 17°04' W 061°54'0 0.0
2016-Dec-29 22:33N 17°04' W 061°54'0 0.0
2016-Dec-29 21:33N 17°04' W 061°54'0 0.0
2016-Dec-29 20:33N 17°04' W 061°54'0 0.0
2016-Dec-29 19:29N 17°04' W 061°54'0 0.0
2016-Dec-29 18:32N 17°04' W 061°54'0 0.0
2016-Dec-29 17:32N 17°04' W 061°54'1 0.8
2016-Dec-29 16:33N 17°04' W 061°55'7 7.3
2016-Dec-29 15:33N 16°60' W 061°49'3 3.1
2016-Dec-29 14:32N 17°00' W 061°46'0 0.0
2016-Dec-29 13:32N 17°00' W 061°46'0 0.0
2016-Dec-29 12:32N 17°00' W 061°46'0 0.0
2016-Dec-29 11:32N 17°00' W 061°46'0 0.0
2016-Dec-29 10:32N 17°00' W 061°46'0 0.0
2016-Dec-29 09:32N 17°00' W 061°46'0 0.0
2016-Dec-29 08:29N 17°00' W 061°46'0 0.0
2016-Dec-29 07:32N 17°00' W 061°46'0 0.0
2016-Dec-29 06:32N 17°00' W 061°46'0 0.0
2016-Dec-29 05:32N 17°00' W 061°46'0 0.0
2016-Dec-29 04:32N 17°00' W 061°46'0 0.0
2016-Dec-29 03:32N 17°00' W 061°46'0 0.0
2016-Dec-29 02:32N 17°00' W 061°46'0 0.0
2016-Dec-29 01:32N 17°00' W 061°46'0 0.0
2016-Dec-29 00:32N 17°00' W 061°46'0 0.0
2016-Dec-28 23:32N 17°00' W 061°46'0 0.0
2016-Dec-28 22:32N 17°00' W 061°46'0 0.0
2016-Dec-28 21:29N 17°00' W 061°46'0 0.0
2016-Dec-28 20:32N 17°00' W 061°46'0 0.0
2016-Dec-28 19:32N 17°00' W 061°46'0 0.0
2016-Dec-28 18:32N 17°00' W 061°46'0 0.0
2016-Dec-28 17:32N 17°00' W 061°46'0 0.0
2016-Dec-28 16:32N 17°00' W 061°46'1 1.2
2016-Dec-28 15:33N 17°01' W 061°47'0 0.0
2016-Dec-28 14:33N 17°01' W 061°47'0 0.0
2016-Dec-28 13:33N 17°01' W 061°47'0 0.0
2016-Dec-28 12:33N 17°01' W 061°47'0 0.0
2016-Dec-28 11:33N 17°01' W 061°47'0 0.0
2016-Dec-28 10:33N 17°01' W 061°47'0 0.0
2016-Dec-28 09:33N 17°01' W 061°47'5 4.8
2016-Dec-28 08:33N 16°60' W 061°52'1313.0
2016-Dec-28 07:33N 17°01' W 062°05'  
2016-Dec-25 03:31N 18°00' W 063°04'4 0.1
2016-Dec-23 15:31N 18°05' W 063°06'0 0.0
2016-Dec-23 14:31N 18°05' W 063°06'0 0.0
2016-Dec-23 13:04N 18°05' W 063°06'0 0.0
2016-Dec-23 12:31N 18°05' W 063°06'0 0.0
2016-Dec-23 11:31N 18°05' W 063°06'0 0.1
2016-Dec-23 10:18N 18°05' W 063°06'1012.5
2016-Dec-23 09:30N 18°08' W 063°15'72 4.2
2016-Dec-22 16:19N 18°26' W 064°29'4 1.0
2016-Dec-22 12:32N 18°23' W 064°32'1111.0
2016-Dec-22 11:33N 18°23' W 064°43'0 0.0
2016-Dec-22 10:16N 18°23' W 064°43'0 0.0
2016-Dec-22 09:28N 18°23' W 064°43'0 0.0
2016-Dec-22 08:28N 18°23' W 064°43'0 0.0
2016-Dec-22 07:22N 18°23' W 064°43'0 0.0
2016-Dec-22 06:28N 18°23' W 064°43'0 0.0
2016-Dec-22 05:28N 18°23' W 064°43'0 0.0
2016-Dec-22 04:28N 18°23' W 064°43'0 0.0
2016-Dec-22 03:28N 18°23' W 064°43'0 0.0
2016-Dec-22 02:28N 18°23' W 064°43'0 0.0
2016-Dec-22 01:28N 18°23' W 064°43'0 0.0
2016-Dec-22 00:28N 18°23' W 064°43'1 1.0
2016-Dec-21 23:33N 18°24' W 064°43'1512.2
2016-Dec-21 22:21N 18°26' W 064°27'2 0.3
2016-Dec-21 16:29N 18°26' W 064°29'1314.2
2016-Dec-21 15:33N 18°23' W 064°43'0 0.4
2016-Dec-21 14:31N 18°23' W 064°43'0 0.0
2016-Dec-21 13:28N 18°23' W 064°43'0 0.0
2016-Dec-21 12:28N 18°23' W 064°43'0 0.0
2016-Dec-21 11:16N 18°23' W 064°43'0 0.0
2016-Dec-21 10:28N 18°23' W 064°43'0 0.0
2016-Dec-21 09:28N 18°23' W 064°43'0 0.0
2016-Dec-21 08:22N 18°23' W 064°43'0 0.0
2016-Dec-21 07:28N 18°23' W 064°43'0 0.0
2016-Dec-21 06:28N 18°23' W 064°43'0 0.0
2016-Dec-21 05:28N 18°23' W 064°43'0 0.0
2016-Dec-21 04:28N 18°23' W 064°43'0 0.0
2016-Dec-21 03:28N 18°23' W 064°43'0 0.0
2016-Dec-21 02:28N 18°23' W 064°43'0 0.0
2016-Dec-21 01:28N 18°23' W 064°43'0 0.0
2016-Dec-21 00:28N 18°23' W 064°43'0 0.0
2016-Dec-20 23:28N 18°23' W 064°43'0 0.0
2016-Dec-20 22:28N 18°23' W 064°43'0 0.0
2016-Dec-20 21:22N 18°23' W 064°43'0 0.0
2016-Dec-20 20:28N 18°23' W 064°43'5 5.7
2016-Dec-20 19:31N 18°20' W 064°38'2 0.3
2016-Dec-20 13:32N 18°21' W 064°37'3 3.1
2016-Dec-20 12:30N 18°25' W 064°37'9 9.9
2016-Dec-20 11:33N 18°22' W 064°46'  

Dump ship's entire track history